Terminal Aerodrome Forecast
Issued by NWS

Home | Current Version | Previous Version | Text Only | Print | Product List | Glossary On
Versions: 1 2 3 4 5 6 7 8 9 10 11 12 13 14 15 16 17
000
FTUS46 KSEW 271100
TAFPAE
TAF
KPAE 271132Z 2712/2812 00000KT P6SM SCT008
     FM271800 18006KT P6SM SCT025 BKN120 BKN200
     FM272100 18010KT P6SM BKN030 BKN070 OVC120
     FM280300 19010KT P6SM OVC025
     FM280500 19012KT P6SM -RA SCT010 OVC020=

USA.gov is the U.S. government's official web portal to all federal, state and local government web resources and services.